Tiempo atmosférico en la estación meteorológica de Mieres, Asturias (172 m.)



Fecha
DESCASC
Temp. máxima en grados centígrados (hora)
DESCASC
Temp. mínima en grados centígrados (hora)
DESCASC
Temp. media en grados centígrados
DESCASC
Racha de viento máxima en m/sg (hora)
DESCASC
Velocidad máxima media en intervalos de 10 minutos(hora)
DESCASC
Precipitaciones diarias en mm
DESCASC
Precipitaciones de 00:00 a 06:00 en mm
DESCASC
Precipitaciones de 06:00 a 12:00 en mm
DESCASC
Precipitaciones de 12:00 a 18:00 en mm
DESCASC
Precipitaciones de 18:00 a 24:00 en mm
DESCASC

Gráficas

Temp. máximas Temp. mínimas Temp. medias Precipitaciones Rachas de viento máximas Velocidades máximas media en intervalos de 10 minutos

Datos horarios

Fecha y hora oficial Temperatura (ºC) Velocidad del viento (km/h) Dirección del viento Racha (km/h) Dirección de racha Precipitación (mm) Presión (hPa) Tendencia (hPa) Humedad (%)
2020-01-23 23:00:00 5.2 0 Calma 5 Nordeste 0 -- -- 98
2020-01-23 22:00:00 5.4 0 Calma 4 Norte 0 -- -- 97
2020-01-23 21:00:00 5.9 0 Calma 4 Norte 0 -- -- 96
2020-01-23 20:00:00 6.6 0 Calma 2 Nordeste 0 -- -- 94
2020-01-23 19:00:00 8.3 0 Calma 4 Oeste 0 -- -- 89
2020-01-23 18:00:00 10.5 0 Calma 9 Norte 0 -- -- 81
2020-01-23 17:00:00 11.8 0 Calma 12 Sudoeste 0 -- -- 74
2020-01-23 16:00:00 13.1 3 Sur 10 Nordeste 0 -- -- 66
2020-01-23 15:00:00 12.7 6 Norte 18 Nordeste 0 -- -- 65
2020-01-23 14:00:00 11.9 0 Calma 8 Sudoeste 0 -- -- 69
2020-01-23 13:00:00 9.5 3 Sur 5 Sudoeste 0 -- -- 73
2020-01-23 12:00:00 6.3 2 Sur 5 Sur 0 -- -- 89
2020-01-23 11:00:00 4.3 0 Calma 6 Norte 0 -- -- 95
2020-01-23 10:00:00 3.6 2 Oeste 12 Sur 0 -- -- 96
2020-01-23 09:00:00 3.5 3 Nordeste 9 Nordeste 0 -- -- 97
2020-01-23 08:00:00 3.8 0 Calma 8 Este 0 -- -- 98
2020-01-23 07:00:00 4.2 4 Sudeste 13 Este 0 -- -- 99
2020-01-23 06:00:00 4 0 Calma 6 Sudoeste 0 -- -- 99
2020-01-23 05:00:00 4.5 2 Nordeste 6 Sudoeste 0 -- -- 99
2020-01-23 04:00:00 4.9 0 Calma 4 Noroeste 0.2 -- -- 98
2020-01-23 03:00:00 5.5 0 Calma 4 Nordeste 0 -- -- 99
2020-01-23 02:00:00 5.8 3 Sudoeste 5 Oeste 0 -- -- 99
2020-01-23 01:00:00 5.9 3 Nordeste 5 Nordeste 0 -- -- 99
2020-01-23 00:00:00 6 0 Calma 4 Nordeste 0 -- -- 99
2020-01-22 23:00:00 6.5 0 Calma 5 Nordeste 0 -- -- 99
2020-01-22 22:00:00 7.2 2 Nordeste 3 Nordeste 0 -- -- 99
2020-01-22 21:00:00 7.8 0 Calma 3 Nordeste 0 -- -- 99
2020-01-22 20:00:00 8 0 Calma 5 Norte 0 -- -- 98
2020-01-22 19:00:00 8.2 0 Calma 8 Sur 0.4 -- -- 97
2020-01-22 18:00:00 8.7 0 Calma 5 Sudoeste 0.8 -- -- 95
2020-01-22 17:00:00 9.2 0 Calma 6 Sudoeste 0 -- -- 91
2020-01-22 16:00:00 9.3 4 Sudoeste 8 Sudoeste 0 -- -- 91
2020-01-22 15:00:00 9 0 Calma 7 Sudoeste 0 -- -- 94
2020-01-22 14:00:00 9.1 3 Sudoeste 8 Sudoeste 0 -- -- 91
2020-01-22 13:00:00 9.1 2 Norte 8 Sur 0.2 -- -- 92
2020-01-22 12:00:00 9 4 Oeste 12 Norte 0.2 -- -- 92
2020-01-22 11:00:00 9 3 Sur 14 Norte 0.6 -- -- 93
2020-01-22 10:00:00 7.8 0 Calma 7 Sudoeste 0.2 -- -- 100
2020-01-22 09:00:00 7.5 2 Sudoeste 10 Sudoeste 0 -- -- 100
2020-01-22 08:00:00 6.6 0 Calma 5 Oeste 0 -- -- 99
2020-01-22 07:00:00 6.1 0 Calma 4 Sur 0.6 -- -- 99
2020-01-22 06:00:00 5.7 0 Calma 4 Sudoeste 0 -- -- 98
2020-01-22 05:00:00 5.6 2 Sur 4 Oeste 0.4 -- -- 97
2020-01-22 04:00:00 5.7 0 Calma 5 Nordeste 0 -- -- 95
2020-01-22 03:00:00 5.7 0 Calma 5 Nordeste 0 -- -- 93
2020-01-22 02:00:00 5.8 0 Calma 5 Nordeste 0 -- -- 91
2020-01-22 01:00:00 6 0 Calma 7 Nordeste 0 -- -- 90
2020-01-22 00:00:00 6 3 Nordeste 5 Nordeste 0 -- -- 90
2020-01-21 23:00:00 5.9 0 Calma 4 Sur -- -- -- 91
2020-01-21 22:00:00 5.8 2 Sudeste 7 Sudoeste 0 -- -- 91
2020-01-21 21:00:00 6 0 Calma 4 Norte 0 -- -- 91
2020-01-21 20:00:00 6.2 0 Calma 6 Noroeste 0 -- -- 88
2020-01-21 19:00:00 7.2 0 Calma 13 Nordeste 0 -- -- 81
2020-01-21 18:00:00 8 6 Nordeste 18 Este 0 -- -- 74
2020-01-21 17:00:00 8.6 6 Nordeste 16 Nordeste 0 -- -- 69
2020-01-21 16:00:00 8.5 4 Norte 18 Nordeste 0 -- -- 72
2020-01-21 15:00:00 8.1 5 Sudoeste 14 Sudoeste 0 -- -- 77
2020-01-21 14:00:00 7.8 2 Oeste 7 Sudoeste 0 -- -- 81
2020-01-21 13:00:00 6.4 0 Calma 4 Nordeste 0 -- -- 90
2020-01-21 12:00:00 5.7 0 Calma 5 Nordeste 0 -- -- 92
2020-01-21 11:00:00 5.2 0 Calma 4 Nordeste 0 -- -- 94
2020-01-21 10:00:00 4.5 0 Calma 4 Nordeste 0 -- -- 96
2020-01-21 09:00:00 4.3 0 Calma 4 Norte 0 -- -- 96
2020-01-21 08:00:00 4.2 0 Calma 5 Norte 0 -- -- 96
2020-01-21 07:00:00 4.4 0 Calma 3 Este 0 -- -- 95
2020-01-21 06:00:00 4.5 0 Calma 4 Nordeste 0 -- -- 95
2020-01-21 05:00:00 4.7 2 Nordeste 5 Nordeste 0 -- -- 94
2020-01-21 04:00:00 4.8 0 Calma 5 Nordeste 0 -- -- 94
2020-01-21 03:00:00 4.7 0 Calma 6 Nordeste 0 -- -- 94
2020-01-21 02:00:00 4.7 0 Calma 6 Sudoeste 0 -- -- 95
2020-01-21 01:00:00 4.8 0 Calma 4 Sur 0 -- -- 93
2020-01-21 00:00:00 4.9 0 Calma 4 Sudoeste 0 -- -- 91
2020-01-20 23:00:00 5 0 Calma 4 Sur 0 -- -- 90
2020-01-20 22:00:00 4.9 0 Calma 3 Nordeste 0 -- -- 90
2020-01-20 21:00:00 5 0 Calma 2 Noroeste 0 -- -- 89
2020-01-20 20:00:00 5.1 0 Calma 4 Sudoeste 0 -- -- 89
2020-01-20 19:00:00 5.4 2 Sudoeste 5 Sudoeste 0 -- -- 86
2020-01-20 18:00:00 5.9 3 Sudoeste 10 Sudeste 0 -- -- 80
2020-01-20 17:00:00 6.3 4 Nordeste 12 Nordeste 0 -- -- 76
2020-01-20 16:00:00 6.2 6 Nordeste 13 Nordeste 0 -- -- 76
2020-01-20 15:00:00 6.4 5 Norte 16 Noroeste 0 -- -- 82
2020-01-20 14:00:00 5.9 3 Sur 19 Este 0.6 -- -- 86
2020-01-20 13:00:00 8.3 7 Nordeste 21 Norte 0 -- -- 65
2020-01-20 12:00:00 6.2 2 Norte 19 Norte 0 -- -- 75
2020-01-20 11:00:00 5.1 4 Nordeste 17 Nordeste 0.4 -- -- 88
2020-01-20 10:00:00 4.1 4 Oeste 9 Oeste 0.8 -- -- 97
2020-01-20 09:00:00 3.8 2 Oeste 9 Sur 0.2 -- -- 97
2020-01-20 08:00:00 3.6 2 Oeste 5 Nordeste 0.2 -- -- 97
2020-01-20 07:00:00 4 3 Sudoeste 9 Sudoeste 0.2 -- -- 97
2020-01-20 06:00:00 3.6 2 Oeste 16 Sudoeste 0.2 -- -- 96
2020-01-20 05:00:00 3.7 0 Calma 4 Oeste 0.2 -- -- 95
2020-01-20 04:00:00 4.7 4 Oeste 14 Norte 0.8 -- -- 89
2020-01-20 03:00:00 5.7 0 Calma 11 Nordeste 0 -- -- 79
2020-01-20 02:00:00 5 0 Calma 16 Este 0 -- -- 86
2020-01-20 01:00:00 5 3 Sur 6 Sudoeste 0 -- -- 93
2020-01-20 00:00:00 5.6 3 Sudoeste 35 Nordeste 0 -- -- 85
2020-01-19 23:00:00 6.2 4 Sudoeste 26 Nordeste 0.4 -- -- 81
2020-01-19 22:00:00 7.7 5 Nordeste 21 Nordeste 0 -- -- 69
2020-01-19 21:00:00 7.5 10 Norte 31 Norte 0 -- -- 69
2020-01-19 20:00:00 6.5 3 Sudoeste 14 Norte 0 -- -- 75
2020-01-19 19:00:00 7.2 3 Sur 17 Norte 0 -- -- 72
2020-01-19 18:00:00 8.2 4 Nordeste 20 Norte 0 -- -- 66
2020-01-19 17:00:00 9 5 Nordeste 17 Nordeste 0 -- -- 62
2020-01-19 16:00:00 9.4 4 Este 28 Nordeste 0.2 -- -- 68
2020-01-19 15:00:00 9.6 8 Este 26 Este 0 -- -- 62
2020-01-19 14:00:00 10.8 9 Nordeste 22 Norte 0 -- -- 63
2020-01-19 13:00:00 9.8 6 Este 22 Este 0 -- -- 68
2020-01-19 12:00:00 8.2 4 Sur 9 Sur 0.2 -- -- 82
2020-01-19 11:00:00 7.7 2 Oeste 15 Sudeste 0 -- -- 84
2020-01-19 10:00:00 7.4 4 Sur 10 Sur 0 -- -- 91
2020-01-19 09:00:00 7.8 4 Sudoeste 14 Sudoeste 0 -- -- 86
2020-01-19 08:00:00 8.3 5 Sudoeste 19 Oeste 0 -- -- 86
2020-01-19 07:00:00 8.2 6 Sudoeste 16 Norte 0.8 -- -- 90
2020-01-19 06:00:00 8.5 4 Oeste 16 Norte 0.4 -- -- 86
2020-01-19 05:00:00 8.4 6 Norte 26 Nordeste 2.6 -- -- 92
2020-01-19 04:00:00 8.8 4 Este 20 Oeste 1.6 -- -- 97
2020-01-19 03:00:00 8 4 Sudoeste 8 Oeste 3.8 -- -- 98
2020-01-19 02:00:00 8 0 Calma 5 Este 0.2 -- -- 98
2020-01-19 01:00:00 7.9 3 Nordeste 9 Nordeste 0.2 -- -- 98
2020-01-19 00:00:00 8 2 Nordeste 6 Este 0 -- -- 97
2020-01-18 23:00:00 7.9 3 Norte 12 Nordeste 0 -- -- 97
2020-01-18 22:00:00 7.9 3 Sudeste 8 Nordeste 0 -- -- 96
2020-01-18 21:00:00 7.8 0 Calma 10 Este 0 -- -- 95
2020-01-18 20:00:00 8 3 Sudeste 12 Este 0 -- -- 95
2020-01-18 19:00:00 9.1 3 Norte 22 Noroeste 1.2 -- -- 88
2020-01-18 18:00:00 9.7 0 Calma 12 Nordeste 0 -- -- 92
2020-01-18 17:00:00 10.4 6 Nordeste 14 Norte 0 -- -- 88
2020-01-18 16:00:00 10 7 Nordeste 13 Nordeste 5 -- -- 93
2020-01-18 15:00:00 11.1 8 Sudoeste 57 Oeste 2.2 -- -- 84
2020-01-18 14:00:00 16.9 14 Sudeste 35 Sudoeste 0 -- -- 48
2020-01-18 13:00:00 16.9 12 Sudoeste 39 Sudoeste 0 -- -- 48
2020-01-18 12:00:00 16.5 9 Sur 35 Sur 0 -- -- 49
2020-01-18 11:00:00 14.8 9 Sudoeste 25 Sudoeste 0 -- -- 51
2020-01-18 10:00:00 13.1 5 Norte 27 Oeste 0 -- -- 54
2020-01-18 09:00:00 12.6 8 Sur 36 Sudoeste 0 -- -- 52
2020-01-18 08:00:00 8 5 Nordeste 27 Sudoeste 0 -- -- 76
2020-01-18 07:00:00 5.8 0 Calma 6 Nordeste 0 -- -- 88
2020-01-18 06:00:00 5.9 3 Sudoeste 5 Sudoeste 0 -- -- 89
2020-01-18 05:00:00 6 3 Nordeste 5 Nordeste 0 -- -- 88
2020-01-18 04:00:00 6 0 Calma 4 Nordeste 0 -- -- 87
2020-01-18 03:00:00 6.1 0 Calma 3 Noroeste 0 -- -- 88
2020-01-18 02:00:00 6.2 0 Calma 3 Nordeste 0 -- -- 88
2020-01-18 01:00:00 6.2 0 Calma 4 Sur 0 -- -- 87
2020-01-18 00:00:00 6 2 Sur 4 Oeste 0 -- -- 90
2020-01-17 23:00:00 6.2 0 Calma 3 Sudoeste 0 -- -- 89
2020-01-17 22:00:00 6.1 0 Calma 2 Sudoeste 0 -- -- 89
2020-01-17 21:00:00 6.2 0 Calma 2 Nordeste 0 -- -- 87
2020-01-17 20:00:00 7.2 0 Calma 3 Norte 0 -- -- 81
2020-01-17 19:00:00 8.7 2 Nordeste 6 Nordeste 0 -- -- 73
2020-01-17 18:00:00 11.1 0 Calma 5 Norte 0 -- -- 62
2020-01-17 17:00:00 12.3 3 Norte 16 Norte 0.2 -- -- 50
2020-01-17 16:00:00 13.1 5 Norte 19 Oeste 0 -- -- 47
2020-01-17 15:00:00 14.1 4 Sudeste 28 Sudoeste 0 -- -- 41
2020-01-17 14:00:00 13.6 4 Oeste 21 Oeste 0 -- -- 40
2020-01-17 13:00:00 13.3 6 Sur 15 Sudoeste 0 -- -- 47
2020-01-17 12:00:00 11.1 2 Este 18 Oeste 0 -- -- 64
2020-01-17 11:00:00 8.4 3 Este 18 Oeste 0 -- -- 76
2020-01-17 10:00:00 6.4 0 Calma 12 Este 0 -- -- 96
2020-01-17 09:00:00 5.7 3 Este 8 Nordeste 0 -- -- 97
2020-01-17 08:00:00 5.8 2 Nordeste 5 Nordeste 0 -- -- 96
2020-01-17 07:00:00 6.8 0 Calma 5 Noroeste 0 -- -- 95
2020-01-17 06:00:00 7.8 2 Norte 6 Nordeste 0 -- -- 90
2020-01-17 05:00:00 10 4 Noroeste 24 Norte 0 -- -- 79
2020-01-17 04:00:00 8.8 6 Nordeste 13 Norte 0 -- -- 99
2020-01-17 03:00:00 8 2 Oeste 6 Oeste 0 -- -- 98
2020-01-17 02:00:00 8.7 0 Calma 5 Oeste 0.2 -- -- 98
2020-01-17 01:00:00 9 0 Calma 8 Noroeste 0 -- -- 97
2020-01-17 00:00:00 9.5 3 Sur 9 Oeste 0 -- -- 97
2020-01-16 23:00:00 10.2 4 Oeste 9 Nordeste 0 -- -- 97
2020-01-16 22:00:00 10.9 0 Calma 6 Sudoeste 0 -- -- 95
2020-01-16 21:00:00 12 2 Nordeste 29 Oeste 1 -- -- 91
2020-01-16 20:00:00 15.7 9 Sudoeste 29 Noroeste 0 -- -- 65
2020-01-16 19:00:00 16.5 9 Sudoeste 27 Sudoeste 0 -- -- 49
2020-01-16 18:00:00 17.1 5 Norte 25 Sur 0 -- -- 48
2020-01-16 17:00:00 17.9 8 Este 23 Sudoeste 0 -- -- 45
2020-01-16 16:00:00 18.6 8 Sudeste 26 Este 0 -- -- 44
2020-01-16 15:00:00 19.9 12 Sur 40 Sur 0 -- -- 42
2020-01-16 14:00:00 18.9 9 Este 22 Este 0 -- -- 48
2020-01-16 13:00:00 18.6 8 Este 40 Sudoeste 0 -- -- 49
2020-01-16 12:00:00 18.3 7 Sur 35 Nordeste 0 -- -- 52
2020-01-16 11:00:00 17.6 6 Noroeste 24 Sudeste 0 -- -- 53
2020-01-16 10:00:00 17.3 8 Nordeste 24 Nordeste 0 -- -- 53
2020-01-16 09:00:00 17.3 5 Sudeste 30 Este 0 -- -- 54
2020-01-16 08:00:00 17.6 10 Sudoeste 33 Sudoeste 0 -- -- 54
2020-01-16 07:00:00 17.7 9 Sudoeste 45 Oeste 0 -- -- 53
2020-01-16 06:00:00 17.6 14 Oeste 39 Sudoeste 0 -- -- 51
2020-01-16 05:00:00 17.3 8 Sudoeste 34 Sudoeste 0 -- -- 48
2020-01-16 04:00:00 17.3 13 Sudoeste 38 Oeste 0 -- -- 52
2020-01-16 03:00:00 17.2 14 Sudoeste 39 Sudoeste 0 -- -- 57
2020-01-16 02:00:00 17 18 Sudoeste 49 Sudoeste 0 -- -- 57
2020-01-16 01:00:00 15.3 15 Sudoeste 40 Sudoeste 0 -- -- 63
2020-01-16 00:00:00 6 3 Este 8 Sur 0 -- -- 99
2020-01-15 23:00:00 5.8 0 Calma 4 Noroeste 0 -- -- 98
2020-01-15 22:00:00 6 0 Calma 4 Nordeste 0 -- -- 97
2020-01-15 21:00:00 6.9 0 Calma 3 Nordeste 0 -- -- 95
2020-01-15 20:00:00 8.2 0 Calma 3 Norte 0 -- -- 92
2020-01-15 19:00:00 10.5 0 Calma 4 Norte 0 -- -- 88
2020-01-15 18:00:00 12 4 Noroeste 14 Norte 0 -- -- 81
2020-01-15 17:00:00 12.5 6 Norte 15 Norte 0 -- -- 80
2020-01-15 16:00:00 13.1 5 Nordeste 15 Nordeste 0 -- -- 78
2020-01-15 15:00:00 13.4 7 Norte 13 Norte 0 -- -- 77
2020-01-15 14:00:00 13.6 7 Norte 14 Norte 0 -- -- 78
2020-01-15 13:00:00 13.7 8 Nordeste 15 Nordeste 0 -- -- 76
2020-01-15 12:00:00 12.4 4 Nordeste 11 Nordeste 0 -- -- 85
2020-01-15 11:00:00 11.7 5 Norte 22 Sudeste 0.2 -- -- 91
2020-01-15 10:00:00 11.4 2 Oeste 28 Noroeste 1.4 -- -- 90
2020-01-15 09:00:00 14.4 3 Este 16 Sudeste 0 -- -- 60
2020-01-15 08:00:00 15.4 5 Este 24 Sudeste 0 -- -- 55
2020-01-15 07:00:00 15.4 5 Sudeste 18 Sur 0 -- -- 53
2020-01-15 06:00:00 15.1 6 Este 15 Sudeste 0 -- -- 53
2020-01-15 05:00:00 14.9 3 Nordeste 21 Nordeste 0 -- -- 56
2020-01-15 04:00:00 15.1 7 Sudeste 27 Sudeste 0 -- -- 51
2020-01-15 03:00:00 15.2 9 Sur 31 Este 0 -- -- 52
2020-01-15 02:00:00 15 9 Norte 31 Este 0 -- -- 53
2020-01-15 01:00:00 15 14 Sudoeste 31 Sudoeste 0 -- -- 51
2020-01-15 00:00:00 14.5 8 Nordeste 33 Sudoeste 0 -- -- 52
2020-01-14 23:00:00 14.5 10 Sudoeste 28 Oeste 0 -- -- 52
2020-01-14 22:00:00 14.5 6 Sudeste 31 Este 0 -- -- 51
2020-01-14 21:00:00 14.5 15 Sudoeste 36 Sudoeste 0 -- -- 53
2020-01-14 20:00:00 14.7 17 Sur 40 Sudoeste 0 -- -- 51
2020-01-14 19:00:00 14.7 17 Sudoeste 46 Sudoeste 0 -- -- 50
2020-01-14 18:00:00 14.8 18 Sudoeste 48 Sudoeste 0 -- -- 49
2020-01-14 17:00:00 15.4 18 Sudoeste 48 Sudoeste 0 -- -- 48
2020-01-14 16:00:00 15.3 17 Sur 50 Sudoeste 0 -- -- 46
2020-01-14 15:00:00 15.4 18 Sur 45 Sudoeste 0 -- -- 45
2020-01-14 14:00:00 15.9 10 Sur 33 Sudoeste 0 -- -- 43
2020-01-14 13:00:00 14.5 9 Nordeste 46 Sur 0 -- -- 47
2020-01-14 12:00:00 13.9 17 Sudoeste 44 Sudoeste 0 -- -- 50
2020-01-14 11:00:00 14.8 17 Sudoeste 44 Sudoeste 0 -- -- 48
2020-01-14 10:00:00 14.9 12 Sudoeste 49 Sudoeste 0 -- -- 49
2020-01-14 09:00:00 14.7 9 Sur 37 Sudoeste 0 -- -- 50
2020-01-14 08:00:00 15.2 5 Sur 38 Sudoeste 0 -- -- 50
2020-01-14 07:00:00 15 15 Sur 43 Sudoeste 0 -- -- 48
2020-01-14 06:00:00 15.4 12 Sur 30 Sur 0 -- -- 47
2020-01-14 05:00:00 15.6 11 Sudeste 33 Sur 0 -- -- 46
2020-01-14 04:00:00 16 14 Sudeste 31 Este 0 -- -- 44
2020-01-14 03:00:00 16 8 Sur 30 Sudoeste 0 -- -- 44
2020-01-14 02:00:00 15.6 10 Sur 25 Sur 0 -- -- 43
2020-01-14 01:00:00 15.1 5 Sudeste 19 Este 0 -- -- 42
2020-01-14 00:00:00 15.4 4 Sudeste 24 Sudoeste 0 -- -- 42
2020-01-13 23:00:00 14.6 6 Sur 23 Sudoeste 0 -- -- 44
2020-01-13 22:00:00 14.2 5 Sur 22 Sudoeste 0 -- -- 45
2020-01-13 21:00:00 7.5 4 Nordeste 10 Nordeste 0 -- -- 82
2020-01-13 20:00:00 7 0 Calma 6 Oeste 0 -- -- 84
2020-01-13 19:00:00 7.5 2 Noroeste 5 Norte 0 -- -- 81
2020-01-13 18:00:00 9.8 3 Este 7 Oeste 0 -- -- 70
2020-01-13 17:00:00 13.5 3 Nordeste 13 Sudoeste 0 -- -- 53
2020-01-13 16:00:00 16.5 5 Sur 15 Sur 0 -- -- 34
2020-01-13 15:00:00 15.7 5 Sur 16 Oeste 0 -- -- 45
2020-01-13 14:00:00 14.9 0 Calma 5 Nordeste 0 -- -- 53
2020-01-13 13:00:00 11 2 Sudoeste 6 Sudoeste 0 -- -- 62
2020-01-13 12:00:00 6.5 2 Sur 14 Norte 0 -- -- 77
2020-01-13 11:00:00 2.6 0 Calma 3 Este 0 -- -- 95
2020-01-13 10:00:00 2.4 0 Calma 10 Este 0 -- -- 95
2020-01-13 09:00:00 2.1 4 Nordeste 6 Nordeste 0 -- -- 97
2020-01-13 08:00:00 1.9 0 Calma 4 Noroeste 0 -- -- 97
2020-01-13 07:00:00 1.8 0 Calma 5 Noroeste 0 -- -- 96
2020-01-13 06:00:00 1.9 0 Calma 4 Nordeste 0 -- -- 95
2020-01-13 05:00:00 2.1 0 Calma 6 Nordeste 0 -- -- 95
2020-01-13 04:00:00 2.6 2 Noroeste 8 Nordeste 0 -- -- 97
2020-01-13 03:00:00 2.6 0 Calma 6 Norte 0 -- -- 99
2020-01-13 02:00:00 2.6 0 Calma 5 Norte 0 -- -- 100
2020-01-13 01:00:00 2.3 0 Calma 3 Nordeste 0 -- -- 99
2020-01-13 00:00:00 2.6 0 Calma 3 Noroeste 0 -- -- 99
2020-01-12 23:00:00 2.7 0 Calma 2 Este 0 -- -- 98
2020-01-12 22:00:00 3.4 0 Calma 0 Calma 0 -- -- 97
2020-01-12 21:00:00 4.2 0 Calma 3 Norte 0 -- -- 95
2020-01-12 20:00:00 5.1 0 Calma 0 Calma 0 -- -- 93
2020-01-12 19:00:00 6.4 0 Calma 3 Norte 0 -- -- 88
2020-01-12 18:00:00 8.5 0 Calma 9 Sudoeste 0 -- -- 79
2020-01-12 17:00:00 12.7 5 Oeste 8 Oeste 0 -- -- 63
2020-01-12 16:00:00 14.5 5 Sudoeste 8 Sudoeste 0 -- -- 54
2020-01-12 15:00:00 14.3 4 Sudoeste 7 Sudoeste 0 -- -- 45
2020-01-12 14:00:00 12.4 2 Sur 3 Sur 0 -- -- 49
2020-01-12 13:00:00 8.9 0 Calma 3 Sudeste 0 -- -- 57
2020-01-12 12:00:00 3.9 0 Calma 4 Sudeste 0 -- -- 92
2020-01-12 11:00:00 0.8 0 Calma 4 Norte 0 -- -- 100
2020-01-12 10:00:00 -0.3 0 Calma 5 Norte 0 -- -- 100
2020-01-12 09:00:00 -0.8 0 Calma 4 Sudeste 0 -- -- 100
2020-01-12 08:00:00 -0.8 0 Calma 8 Norte 0 -- -- 100
2020-01-12 07:00:00 -0.9 0 Calma 3 Nordeste 0 -- -- 100
2020-01-12 06:00:00 -0.6 0 Calma 5 Nordeste 0 -- -- 100
2020-01-12 05:00:00 -0.4 0 Calma 5 Nordeste 0 -- -- 100
2020-01-12 04:00:00 0 2 Nordeste 5 Norte 0 -- -- 100
2020-01-12 03:00:00 0.2 0 Calma 2 Norte 0 -- -- 99
2020-01-12 02:00:00 0.7 0 Calma 3 Este 0 -- -- 99
2020-01-12 01:00:00 1.2 0 Calma 3 Este 0 -- -- 99
2020-01-12 00:00:00 1.6 0 Calma 4 Nordeste 0 -- -- 98
2020-01-11 23:00:00 2.3 2 Nordeste 4 Nordeste 0 -- -- 98
2020-01-11 22:00:00 2.9 0 Calma 2 Este 0 -- -- 97
2020-01-11 21:00:00 3.8 0 Calma 2 Nordeste 0 -- -- 96
2020-01-11 20:00:00 4.7 0 Calma 2 Oeste 0 -- -- 93
2020-01-11 19:00:00 6.1 0 Calma 2 Nordeste 0 -- -- 89
2020-01-11 18:00:00 8.4 0 Calma 4 Sudoeste 0 -- -- 81
2020-01-11 17:00:00 11.6 3 Oeste 8 Sudoeste 0 -- -- 65
2020-01-11 16:00:00 13.4 3 Sudoeste 8 Sudoeste 0 -- -- 55
2020-01-11 15:00:00 12.3 2 Sur 5 Sur 0 -- -- 54
2020-01-11 14:00:00 10.5 0 Calma 4 Sur 0 -- -- 62
2020-01-11 13:00:00 8.7 0 Calma 4 Sudeste 0 -- -- 70
2020-01-11 12:00:00 4.7 0 Calma 5 Sudoeste 0 -- -- 100
2020-01-11 11:00:00 1.2 0 Calma 5 Oeste 0 -- -- 100
2020-01-11 10:00:00 1.1 2 Oeste 6 Norte 0 -- -- 100
2020-01-11 09:00:00 0.9 0 Calma 6 Noroeste 0 -- -- 100
2020-01-11 08:00:00 0.4 0 Calma 5 Norte 0 -- -- 100
2020-01-11 07:00:00 0.8 0 Calma 5 Este 0 -- -- 100
2020-01-11 06:00:00 0.8 0 Calma 4 Sudeste 0 -- -- 100
2020-01-11 05:00:00 1.3 0 Calma 6 Oeste 0.2 -- -- 100
2020-01-11 04:00:00 1.2 0 Calma 3 Norte 0 -- -- 100
2020-01-11 03:00:00 1.8 0 Calma 3 Este 0 -- -- 100
2020-01-11 02:00:00 2.3 0 Calma 5 Nordeste 0 -- -- 100
2020-01-11 01:00:00 2.6 0 Calma 4 Nordeste 0 -- -- 100
2020-01-11 00:00:00 3.1 0 Calma 7 Norte 0 -- -- 99
2020-01-10 23:00:00 3.6 2 Este 5 Nordeste 0 -- -- 99
2020-01-10 22:00:00 4 3 Nordeste 4 Nordeste 0 -- -- 99
2020-01-10 21:00:00 4 0 Calma 2 Sudeste 0 -- -- 98
2020-01-10 20:00:00 4.8 0 Calma 4 Nordeste 0 -- -- 97
2020-01-10 19:00:00 5.9 0 Calma 4 Norte 0 -- -- 96
2020-01-10 18:00:00 7.6 0 Calma 3 Norte 0 -- -- 94
2020-01-10 17:00:00 8.8 0 Calma 6 Oeste 0 -- -- 93
2020-01-10 16:00:00 9.1 2 Sur 6 Sudoeste 0.2 -- -- 90
2020-01-10 15:00:00 9.7 0 Calma 5 Nordeste 0 -- -- 85
2020-01-10 14:00:00 9 2 Sur 9 Sudoeste 0 -- -- 89
2020-01-10 13:00:00 8.7 0 Calma 8 Nordeste 0 -- -- 91
2020-01-10 12:00:00 7.4 2 Nordeste 6 Nordeste 0 -- -- 94
2020-01-10 11:00:00 6.5 3 Nordeste 9 Nordeste 0.2 -- -- 95
2020-01-10 10:00:00 5.7 0 Calma 8 Nordeste 0.2 -- -- 96
2020-01-10 09:00:00 5.5 0 Calma 12 Nordeste 0.2 -- -- 95
2020-01-10 08:00:00 5.7 5 Nordeste 10 Nordeste 0.2 -- -- 94
2020-01-10 07:00:00 5.9 5 Nordeste 12 Nordeste 0 -- -- 90
2020-01-10 06:00:00 6.4 7 Nordeste 13 Nordeste 0 -- -- 87
2020-01-10 05:00:00 7 6 Nordeste 15 Nordeste 0 -- -- 81
2020-01-10 04:00:00 7.9 4 Nordeste 11 Oeste 0 -- -- 76
2020-01-10 03:00:00 9 2 Nordeste 20 Oeste 0 -- -- 65
2020-01-10 02:00:00 9 3 Nordeste 24 Oeste 0 -- -- 76
2020-01-10 01:00:00 10 2 Noroeste 17 Oeste 0 -- -- 68
2020-01-10 00:00:00 10.7 6 Noroeste 31 Oeste 0 -- -- 63
2020-01-09 23:00:00 10.2 3 Nordeste 16 Noroeste 0 -- -- 64
2020-01-09 22:00:00 10.5 4 Noroeste 22 Oeste 0 -- -- 59
2020-01-09 21:00:00 6.9 4 Nordeste 12 Nordeste 0 -- -- 84
2020-01-09 20:00:00 9.5 5 Nordeste 18 Noroeste 0 -- -- 72
2020-01-09 19:00:00 11.2 8 Norte 19 Norte 0 -- -- 64
2020-01-09 18:00:00 12.6 11 Noroeste 38 Sudoeste 0 -- -- 61
2020-01-09 17:00:00 13.3 16 Noroeste 36 Oeste 0 -- -- 66
2020-01-09 16:00:00 13.1 15 Norte 43 Noroeste 1 -- -- 80
2020-01-09 15:00:00 16.3 17 Nordeste 36 Nordeste 0 -- -- 66
2020-01-09 14:00:00 19.4 8 Norte 19 Noroeste 0 -- -- 51
2020-01-09 13:00:00 13.5 4 Norte 14 Nordeste 0 -- -- 72
2020-01-09 12:00:00 9.7 2 Sudeste 8 Oeste 0 -- -- 84
2020-01-09 11:00:00 5.8 2 Sudeste 8 Nordeste 0 -- -- 95
2020-01-09 10:00:00 4.8 3 Sudoeste 8 Oeste 0 -- -- 98
2020-01-09 09:00:00 3.6 3 Este 12 Nordeste 0 -- -- 97
2020-01-09 08:00:00 3.6 0 Calma 5 Este 0 -- -- 96
2020-01-09 07:00:00 3.4 0 Calma 6 Nordeste 0 -- -- 95
2020-01-09 06:00:00 3.8 0 Calma 3 Nordeste 0 -- -- 94
2020-01-09 05:00:00 4 0 Calma 5 Nordeste 0 -- -- 94
2020-01-09 04:00:00 4.3 0 Calma 3 Nordeste 0 -- -- 92
2020-01-09 03:00:00 5 0 Calma 5 Norte 0 -- -- 90
2020-01-09 02:00:00 5.7 2 Sudoeste 10 Oeste 0 -- -- 85
2020-01-09 01:00:00 5.5 5 Nordeste 19 Nordeste 0 -- -- 87
2020-01-09 00:00:00 5.8 0 Calma 6 Nordeste 0 -- -- 89
2020-01-08 23:00:00 6.4 0 Calma 7 Nordeste 0 -- -- 88
2020-01-08 22:00:00 6.8 0 Calma 3 Sudeste 0 -- -- 89
2020-01-08 21:00:00 8 0 Calma 4 Nordeste 0 -- -- 86
2020-01-08 20:00:00 10.1 0 Calma 4 Nordeste 0 -- -- 81
2020-01-08 19:00:00 11.5 0 Calma 5 Norte 0 -- -- 75
2020-01-08 18:00:00 13.1 0 Calma 5 Oeste 0 -- -- 70
2020-01-08 17:00:00 15.9 3 Sudoeste 7 Sudoeste -- -- -- 53
2020-01-08 16:00:00 17.2 5 Sudoeste 8 Sudoeste 0 -- -- 46
2020-01-08 15:00:00 17.2 4 Sudoeste 5 Sudoeste 0 -- -- 44
2020-01-08 14:00:00 15.4 3 Sudoeste 4 Sudoeste 0 -- -- 46
2020-01-08 13:00:00 12.4 0 Calma 4 Este 0 -- -- 53
2020-01-08 12:00:00 8.2 0 Calma 3 Sudeste 0 -- -- 69
2020-01-08 11:00:00 3.8 2 Sudeste 4 Nordeste 0 -- -- 92
2020-01-08 10:00:00 3.1 0 Calma 4 Nordeste 0 -- -- 93
2020-01-08 09:00:00 3.3 0 Calma 3 Sudeste 0 -- -- 91
2020-01-08 08:00:00 4.2 0 Calma 5 Nordeste 0 -- -- 86
2020-01-08 07:00:00 5 4 Nordeste 6 Nordeste 0 -- -- 85
2020-01-08 06:00:00 4.1 0 Calma 5 Nordeste 0 -- -- 89
2020-01-08 05:00:00 3.1 0 Calma 3 Nordeste 0 -- -- 95
2020-01-08 04:00:00 2.7 0 Calma 4 Nordeste 0 -- -- 95
2020-01-08 03:00:00 3 0 Calma 4 Norte 0 -- -- 94
2020-01-08 02:00:00 3.6 0 Calma 4 Nordeste 0 -- -- 91
2020-01-08 01:00:00 4.2 0 Calma 3 Nordeste 0 -- -- 90
2020-01-08 00:00:00 4.4 0 Calma 7 Nordeste 0 -- -- 93
2020-01-07 23:00:00 3.4 0 Calma 4 Nordeste 0 -- -- 96
2020-01-07 22:00:00 3.6 0 Calma 3 Nordeste 0 -- -- 95
2020-01-07 21:00:00 4.1 0 Calma 4 Norte 0 -- -- 93
2020-01-07 20:00:00 4.8 2 Nordeste 3 Nordeste 0 -- -- 90
2020-01-07 19:00:00 6.1 0 Calma 2 Norte 0 -- -- 86
2020-01-07 18:00:00 8.3 0 Calma 3 Oeste 0 -- -- 77
2020-01-07 17:00:00 12.4 0 Calma 9 Sudoeste 0 -- -- 59
2020-01-07 16:00:00 13.8 4 Sudoeste 8 Sudoeste 0 -- -- 54
2020-01-07 15:00:00 14.1 4 Sudoeste 8 Sudoeste 0 -- -- 51
2020-01-07 14:00:00 12.1 4 Sudoeste 6 Sudoeste 0 -- -- 53
2020-01-07 13:00:00 9.3 0 Calma 4 Sur 0 -- -- 60
2020-01-07 12:00:00 4.4 0 Calma 3 Sur 0 -- -- 100
2020-01-07 11:00:00 0.9 0 Calma 2 Sudeste 0 -- -- 100
2020-01-07 10:00:00 0.2 0 Calma 5 Nordeste 0 -- -- 100
2020-01-07 09:00:00 0.1 2 Nordeste 4 Nordeste 0 -- -- 100
2020-01-07 08:00:00 0.2 0 Calma 4 Nordeste 0 -- -- 100
2020-01-07 07:00:00 0.3 0 Calma 4 Noroeste 0 -- -- 100
2020-01-07 06:00:00 0.9 0 Calma 4 Sudeste 0 -- -- 100
2020-01-07 05:00:00 1.1 0 Calma 4 Nordeste 0 -- -- 99
2020-01-07 04:00:00 1.1 0 Calma 5 Nordeste 0 -- -- 99
2020-01-07 03:00:00 1.4 0 Calma 4 Norte 0 -- -- 99
2020-01-07 02:00:00 2.1 2 Nordeste 6 Nordeste 0 -- -- 98
2020-01-07 01:00:00 2.3 0 Calma 5 Nordeste 0 -- -- 97
2020-01-07 00:00:00 3.5 0 Calma 7 Sudoeste 0 -- -- 95
2020-01-06 23:00:00 4.6 3 Oeste 9 Oeste 0 -- -- 97
2020-01-06 22:00:00 3.2 0 Calma 5 Sudoeste 0 -- -- 98
2020-01-06 21:00:00 3.8 0 Calma 5 Oeste 0 -- -- 97
2020-01-06 20:00:00 4.3 0 Calma 3 Norte 0 -- -- 95
2020-01-06 19:00:00 5.7 0 Calma 6 Noroeste 0 -- -- 92
2020-01-06 18:00:00 7.6 2 Oeste 9 Oeste 0 -- -- 85
2020-01-06 17:00:00 10.5 0 Calma 8 Oeste 0 -- -- 76
2020-01-06 16:00:00 12.1 3 Oeste 8 Oeste 0 -- -- 72
2020-01-06 15:00:00 10.8 2 Sudoeste 4 Sudoeste 0 -- -- 72
2020-01-06 14:00:00 9.4 2 Sur 6 Sudoeste 0 -- -- 74
2020-01-06 13:00:00 7.3 2 Nordeste 8 Sur 0 -- -- 83
2020-01-06 12:00:00 4.1 2 Sudoeste 5 Sudoeste 0 -- -- 100
2020-01-06 11:00:00 0.5 0 Calma 7 Oeste 0 -- -- 100
2020-01-06 10:00:00 -0.1 0 Calma 4 Este 0 -- -- 100